Time;durP1;ratioP1;P1;durP2;ratioP2;P2;SDS_P1;SDS_P2;PMS_P1;PMS_P2;Temp;Humidity;BMP_temperature;BMP_pressure;BME280_temperature;BME280_humidity;BME280_pressure;Samples;Min_cycle;Max_cycle;Signal;HPM_P1;HPM_P2
2022/11/09 00:00:40;;;;;;;2.70;0.90;;;16.90;99.90;;;;;;2068803;28;20465;-69
2022/11/09 00:01:41;;;;;;;1.83;1.30;;;16.90;99.90;;;;;;2071250;28;20018;-69
2022/11/09 00:02:42;;;;;;;1.77;1.17;;;16.90;99.90;;;;;;2068686;28;20025;-69
2022/11/09 00:03:42;;;;;;;3.30;1.25;;;16.90;99.90;;;;;;2068076;28;20026;-69
2022/11/09 00:04:43;;;;;;;3.28;1.60;;;16.90;99.90;;;;;;2070209;28;20022;-69
2022/11/09 00:05:57;;;;;;;3.00;1.30;;;16.90;99.90;;;;;;2069362;28;20116;-69
2022/11/09 00:06:57;;;;;;;1.85;1.17;;;16.90;99.90;;;;;;2067693;28;20485;-69
2022/11/09 00:07:58;;;;;;;2.15;1.17;;;16.90;99.90;;;;;;2069312;28;20933;-69
2022/11/09 00:09:00;;;;;;;2.67;1.55;;;16.90;99.90;;;;;;2068779;28;20033;-69
2022/11/09 00:10:00;;;;;;;1.67;1.15;;;16.90;99.90;;;;;;2070194;28;20088;-69
2022/11/09 00:11:03;;;;;;;5.03;1.52;;;16.90;99.90;;;;;;2069252;28;20030;-69
2022/11/09 00:12:06;;;;;;;1.30;1.00;;;16.90;99.90;;;;;;2068787;28;20061;-69
2022/11/09 00:13:06;;;;;;;3.95;1.33;;;16.90;99.90;;;;;;2068808;28;20026;-69
2022/11/09 00:14:13;;;;;;;1.38;1.10;;;16.90;99.90;;;;;;2070056;28;20044;-69
2022/11/09 00:15:14;;;;;;;1.83;1.23;;;16.90;99.90;;;;;;2069704;28;21326;-69
2022/11/09 00:16:19;;;;;;;2.53;1.00;;;16.90;99.90;;;;;;2070345;28;20676;-69
2022/11/09 00:17:20;;;;;;;2.08;1.20;;;16.90;99.90;;;;;;2069298;28;20021;-69
2022/11/09 00:18:20;;;;;;;1.83;1.00;;;16.90;99.90;;;;;;2069429;28;20081;-69
2022/11/09 00:19:21;;;;;;;2.88;1.00;;;16.90;99.90;;;;;;2071304;28;20080;-69
2022/11/09 00:20:22;;;;;;;1.85;1.23;;;16.90;99.90;;;;;;2070697;28;20042;-69
2022/11/09 00:21:25;;;;;;;1.27;0.90;;;16.90;99.90;;;;;;2068767;28;20029;-69
2022/11/09 00:22:25;;;;;;;2.92;1.17;;;16.90;99.90;;;;;;2067971;28;20026;-69
2022/11/09 00:23:26;;;;;;;1.98;1.13;;;16.90;99.90;;;;;;2069969;28;20018;-69
2022/11/09 00:24:26;;;;;;;1.30;1.00;;;16.90;99.90;;;;;;2069374;28;20030;-69
2022/11/09 00:25:27;;;;;;;1.10;0.82;;;16.90;99.90;;;;;;2071715;28;20037;-69
2022/11/09 00:26:28;;;;;;;1.30;1.10;;;16.90;99.90;;;;;;2070710;28;20812;-69
2022/11/09 00:27:28;;;;;;;1.60;0.98;;;16.90;99.90;;;;;;2073217;28;20029;-69
2022/11/09 00:28:29;;;;;;;2.05;1.17;;;16.90;99.90;;;;;;2071921;28;20117;-69
2022/11/09 00:29:29;;;;;;;2.95;1.10;;;16.90;99.90;;;;;;2073573;28;20087;-69
2022/11/09 00:30:30;;;;;;;1.80;1.05;;;16.90;99.90;;;;;;2072730;28;20041;-69
2022/11/09 00:31:30;;;;;;;0.95;0.90;;;16.90;99.90;;;;;;2072698;28;20932;-69
2022/11/09 00:32:31;;;;;;;3.17;1.23;;;16.90;99.90;;;;;;2071472;28;20663;-69
2022/11/09 00:33:32;;;;;;;2.75;1.15;;;16.90;99.90;;;;;;2072209;28;20437;-69
2022/11/09 00:34:33;;;;;;;1.58;1.00;;;16.90;99.90;;;;;;2071657;28;20017;-69
2022/11/09 00:35:36;;;;;;;2.03;1.05;;;16.90;99.90;;;;;;2072749;28;20032;-69
2022/11/09 00:36:37;;;;;;;3.05;1.35;;;16.90;99.90;;;;;;2071591;28;21671;-69
2022/11/09 00:37:37;;;;;;;1.50;0.93;;;16.90;99.90;;;;;;2072101;28;20090;-69
2022/11/09 00:38:39;;;;;;;1.35;1.00;;;16.90;99.90;;;;;;2072752;28;20051;-69
2022/11/09 00:39:39;;;;;;;1.23;0.98;;;16.90;99.90;;;;;;2073634;28;20231;-69
2022/11/09 00:40:40;;;;;;;1.88;1.10;;;16.90;99.90;;;;;;2072048;28;20470;-69
2022/11/09 00:41:40;;;;;;;2.13;1.00;;;16.90;99.90;;;;;;2072685;28;20745;-69
2022/11/09 00:42:41;;;;;;;1.30;1.08;;;16.90;99.90;;;;;;2072481;28;20097;-69
2022/11/09 00:43:41;;;;;;;2.97;1.10;;;16.90;99.90;;;;;;2071909;28;20117;-69
2022/11/09 00:44:42;;;;;;;2.13;1.15;;;16.90;99.90;;;;;;2072514;28;20071;-69
2022/11/09 00:45:43;;;;;;;1.73;1.00;;;16.90;99.90;;;;;;2070945;28;20501;-69
2022/11/09 00:46:43;;;;;;;1.55;1.00;;;16.90;99.90;;;;;;2071954;28;20037;-69
2022/11/09 00:47:44;;;;;;;1.90;1.00;;;16.90;99.90;;;;;;2072048;28;20105;-69
2022/11/09 00:48:45;;;;;;;2.17;1.02;;;16.90;99.90;;;;;;2072945;28;20044;-69
2022/11/09 00:49:46;;;;;;;1.70;1.10;;;16.90;99.90;;;;;;2072873;28;20022;-69
2022/11/09 00:50:54;;;;;;;1.95;1.05;;;16.90;99.90;;;;;;2072723;28;20172;-69
2022/11/09 00:51:55;;;;;;;2.15;1.00;;;16.90;99.90;;;;;;2071951;28;20033;-69
2022/11/09 00:52:55;;;;;;;1.67;0.93;;;16.80;99.90;;;;;;2071956;28;20030;-69
2022/11/09 00:53:57;;;;;;;2.10;1.10;;;16.80;99.90;;;;;;2072243;28;20397;-69
2022/11/09 00:54:57;;;;;;;1.52;1.10;;;16.80;99.90;;;;;;2073490;28;20508;-69
2022/11/09 00:56:03;;;;;;;2.42;1.08;;;16.80;99.90;;;;;;2072765;28;20406;-69
2022/11/09 00:57:04;;;;;;;1.77;1.00;;;16.80;99.90;;;;;;2071598;28;20466;-69
2022/11/09 00:58:04;;;;;;;1.77;1.08;;;16.80;99.90;;;;;;2070802;28;20041;-69
2022/11/09 00:59:05;;;;;;;3.90;1.23;;;16.80;99.90;;;;;;2073758;28;20061;-69
2022/11/09 01:00:06;;;;;;;1.20;1.10;;;16.80;99.90;;;;;;2070937;28;20034;-69
2022/11/09 01:01:13;;;;;;;1.52;1.15;;;16.80;99.90;;;;;;2070246;28;20391;-69
2022/11/09 01:02:13;;;;;;;1.90;1.17;;;16.70;99.90;;;;;;2072408;28;20021;-69
2022/11/09 01:03:14;;;;;;;3.30;1.30;;;16.70;99.90;;;;;;2072069;28;20122;-69
2022/11/09 01:04:14;;;;;;;2.17;1.10;;;16.70;99.90;;;;;;2073294;28;20037;-69
2022/11/09 01:05:15;;;;;;;1.38;1.10;;;16.70;99.90;;;;;;2072748;28;20476;-69
2022/11/09 01:06:22;;;;;;;1.73;1.00;;;16.70;99.90;;;;;;2070787;28;20118;-69
2022/11/09 01:07:23;;;;;;;1.60;1.00;;;16.70;99.90;;;;;;2072375;28;20030;-69
2022/11/09 01:08:23;;;;;;;2.63;1.15;;;16.70;99.90;;;;;;2072166;28;20377;-69
2022/11/09 01:09:24;;;;;;;2.22;0.85;;;16.70;99.90;;;;;;2070802;28;20037;-69
2022/11/09 01:10:24;;;;;;;1.80;1.00;;;16.70;99.90;;;;;;2071107;28;20019;-69
2022/11/09 01:11:25;;;;;;;2.55;0.98;;;16.70;99.90;;;;;;2072312;28;20466;-69
2022/11/09 01:12:25;;;;;;;2.58;1.20;;;16.60;99.90;;;;;;2071942;28;20390;-69
2022/11/09 01:13:26;;;;;;;2.22;0.95;;;16.70;99.90;;;;;;2072703;28;20064;-69
2022/11/09 01:14:27;;;;;;;1.55;1.02;;;16.70;99.90;;;;;;2073313;28;20034;-69
2022/11/09 01:15:27;;;;;;;2.80;1.55;;;16.60;99.90;;;;;;2071562;28;20022;-69
2022/11/09 01:16:28;;;;;;;3.65;1.00;;;16.70;99.90;;;;;;2070849;28;20034;-69
2022/11/09 01:17:28;;;;;;;1.23;1.10;;;16.60;99.90;;;;;;2071666;28;20125;-69
2022/11/09 01:18:29;;;;;;;1.38;0.90;;;16.60;99.90;;;;;;2072912;28;20196;-69
2022/11/09 01:19:29;;;;;;;1.13;1.02;;;16.60;99.90;;;;;;2071410;28;20026;-69
2022/11/09 01:20:30;;;;;;;2.70;1.13;;;16.60;99.90;;;;;;2074134;28;20433;-69
2022/11/09 01:21:30;;;;;;;1.13;1.02;;;16.60;99.90;;;;;;2072460;28;20409;-69
2022/11/09 01:22:31;;;;;;;1.80;1.00;;;16.60;99.90;;;;;;2072873;28;20712;-69
2022/11/09 01:23:32;;;;;;;1.42;1.10;;;16.60;99.90;;;;;;2072673;28;20092;-69
2022/11/09 01:24:32;;;;;;;2.15;1.15;;;16.60;99.90;;;;;;2071508;28;20022;-69
2022/11/09 01:25:33;;;;;;;1.00;0.90;;;16.60;99.90;;;;;;2072913;28;20034;-69
2022/11/09 01:26:34;;;;;;;2.17;1.00;;;16.60;99.90;;;;;;2071555;28;20046;-69
2022/11/09 01:27:34;;;;;;;3.42;1.02;;;16.50;99.90;;;;;;2072631;28;20053;-69
2022/11/09 01:28:36;;;;;;;2.15;1.02;;;16.60;99.90;;;;;;2072778;28;20034;-69
2022/11/09 01:29:36;;;;;;;1.45;0.98;;;16.50;99.90;;;;;;2073323;28;20374;-69
2022/11/09 01:30:39;;;;;;;3.38;1.35;;;16.50;99.90;;;;;;2070493;28;20038;-69
2022/11/09 01:31:40;;;;;;;2.30;0.95;;;16.60;99.90;;;;;;2070509;28;20044;-69
2022/11/09 01:32:41;;;;;;;1.10;1.00;;;16.50;99.90;;;;;;2072828;28;20028;-69
2022/11/09 01:33:41;;;;;;;2.15;0.95;;;16.50;99.90;;;;;;2070968;28;20054;-69
2022/11/09 01:34:42;;;;;;;1.88;0.93;;;16.50;99.90;;;;;;2071321;28;20022;-69
2022/11/09 01:35:42;;;;;;;1.08;1.00;;;16.50;99.90;;;;;;2071698;28;20363;-69
2022/11/09 01:36:43;;;;;;;1.63;0.98;;;16.50;99.90;;;;;;2072773;28;20022;-69
2022/11/09 01:37:44;;;;;;;1.77;1.02;;;16.50;99.90;;;;;;2072323;28;20075;-69
2022/11/09 01:38:45;;;;;;;2.05;1.35;;;16.50;99.90;;;;;;2068696;28;20108;-69
2022/11/09 01:39:45;;;;;;;1.30;1.20;;;16.50;99.90;;;;;;2071912;28;20490;-69
2022/11/09 01:40:46;;;;;;;1.75;1.23;;;16.50;99.90;;;;;;2069720;28;20037;-69
2022/11/09 01:41:47;;;;;;;4.40;1.25;;;16.50;99.90;;;;;;2072614;28;20047;-69
2022/11/09 01:42:48;;;;;;;2.25;1.17;;;16.50;99.90;;;;;;2070987;28;20034;-69
2022/11/09 01:44:10;;;;;;;1.48;1.10;;;16.40;99.90;;;;;;2070971;28;20046;-69
2022/11/09 01:45:17;;;;;;;2.97;1.13;;;16.50;99.90;;;;;;2070246;28;20383;-69
2022/11/09 01:46:27;;;;;;;1.60;1.02;;;16.40;99.90;;;;;;2069691;28;20092;-69
2022/11/09 01:47:28;;;;;;;1.30;0.80;;;16.50;99.90;;;;;;2071189;28;20145;-69
2022/11/09 01:48:38;;;;;;;1.52;1.02;;;16.40;99.90;;;;;;2069608;28;20030;-69
2022/11/09 01:49:51;;;;;;;1.75;1.00;;;16.40;99.90;;;;;;2071782;28;20406;-69
2022/11/09 01:50:58;;;;;;;2.08;1.05;;;16.40;99.90;;;;;;2071879;28;20128;-69
2022/11/09 01:52:07;;;;;;;1.30;0.90;;;16.40;99.90;;;;;;2071037;28;20493;-69
2022/11/09 01:53:13;;;;;;;3.33;1.05;;;16.40;99.90;;;;;;2071470;28;20038;-69
2022/11/09 01:54:27;;;;;;;2.35;1.00;;;16.40;99.90;;;;;;2070716;28;20034;-69
2022/11/09 01:55:28;;;;;;;1.55;1.08;;;16.40;99.90;;;;;;2069779;28;20026;-69
2022/11/09 01:56:30;;;;;;;2.10;1.08;;;16.40;99.90;;;;;;2069582;28;20252;-69
2022/11/09 01:57:35;;;;;;;2.00;1.05;;;16.40;99.90;;;;;;2070778;28;20049;-69
2022/11/09 01:58:47;;;;;;;1.63;1.00;;;16.50;99.90;;;;;;2071464;28;20030;-69
2022/11/09 01:59:56;;;;;;;2.05;1.10;;;16.50;99.90;;;;;;2070337;28;20036;-69
2022/11/09 02:00:59;;;;;;;2.28;1.13;;;16.50;99.90;;;;;;2070529;28;20438;-69
2022/11/09 02:02:01;;;;;;;1.05;0.88;;;16.50;99.90;;;;;;2068504;28;20034;-69
2022/11/09 02:03:11;;;;;;;2.50;1.25;;;16.40;99.90;;;;;;2069688;28;20128;-69
2022/11/09 02:04:20;;;;;;;0.63;0.63;;;16.50;99.90;;;;;;2068289;28;20046;-69
2022/11/09 02:05:25;;;;;;;4.30;1.00;;;16.50;99.90;;;;;;2068845;28;20042;-70
2022/11/09 02:06:29;;;;;;;3.28;1.20;;;16.40;99.90;;;;;;2070530;28;20034;-70
2022/11/09 02:07:29;;;;;;;1.60;1.00;;;16.40;99.90;;;;;;2070885;28;20041;-70
2022/11/09 02:08:30;;;;;;;4.22;1.02;;;16.40;99.90;;;;;;2070487;28;20029;-69
2022/11/09 02:09:44;;;;;;;2.03;0.95;;;16.50;99.90;;;;;;2071390;28;20697;-70
2022/11/09 02:11:01;;;;;;;2.05;1.10;;;16.50;99.90;;;;;;2068888;28;20076;-70
2022/11/09 02:12:02;;;;;;;1.85;0.90;;;16.40;99.90;;;;;;2069595;28;20038;-70
2022/11/09 02:13:04;;;;;;;1.13;0.98;;;16.40;99.90;;;;;;2070332;28;20029;-70
2022/11/09 02:14:06;;;;;;;2.42;1.17;;;16.40;99.90;;;;;;2069018;28;20117;-70
2022/11/09 02:15:09;;;;;;;0.98;0.88;;;16.40;99.90;;;;;;2071291;28;20026;-70
2022/11/09 02:16:11;;;;;;;2.15;0.93;;;16.40;99.90;;;;;;2069662;28;20030;-70
2022/11/09 02:17:12;;;;;;;3.03;1.00;;;16.40;99.90;;;;;;2069934;28;20023;-70
2022/11/09 02:18:13;;;;;;;2.28;0.93;;;16.40;99.90;;;;;;2067975;28;20018;-70
2022/11/09 02:19:13;;;;;;;2.65;1.10;;;16.40;99.90;;;;;;2069951;28;20091;-70
2022/11/09 02:20:14;;;;;;;2.78;1.35;;;16.40;99.90;;;;;;2071772;28;20030;-70
2022/11/09 02:21:15;;;;;;;1.63;1.02;;;16.40;99.90;;;;;;2070103;28;20026;-70
2022/11/09 02:22:16;;;;;;;3.58;1.17;;;16.40;99.90;;;;;;2069423;28;20030;-70
2022/11/09 02:23:17;;;;;;;3.38;1.40;;;16.40;99.90;;;;;;2069704;28;20484;-70
2022/11/09 02:24:18;;;;;;;2.97;1.23;;;16.40;99.90;;;;;;2071135;28;20367;-70
2022/11/09 02:25:19;;;;;;;1.48;1.17;;;16.30;99.90;;;;;;2069957;28;21558;-70
2022/11/09 02:26:26;;;;;;;4.00;1.40;;;16.30;99.90;;;;;;2070146;28;20114;-70
2022/11/09 02:27:27;;;;;;;4.65;1.20;;;16.40;99.90;;;;;;2070216;28;20029;-70
2022/11/09 02:28:28;;;;;;;2.90;0.85;;;16.30;99.90;;;;;;2070912;28;20038;-70
2022/11/09 02:29:43;;;;;;;2.97;1.00;;;16.30;99.90;;;;;;2069837;28;20034;-70
2022/11/09 02:30:47;;;;;;;2.28;1.15;;;16.30;99.90;;;;;;2069503;28;20037;-70
2022/11/09 02:32:01;;;;;;;2.30;1.30;;;16.30;99.90;;;;;;2068133;28;20108;-70
2022/11/09 02:33:02;;;;;;;2.75;1.42;;;16.30;99.90;;;;;;2069209;28;20553;-69
2022/11/09 02:34:12;;;;;;;2.13;1.30;;;16.30;99.90;;;;;;2069856;28;20371;-70
2022/11/09 02:35:12;;;;;;;;;;;16.30;99.90;;;;;;2070119;28;20033;-70
2022/11/09 02:36:13;;;;;;;2.10;1.02;;;16.20;99.90;;;;;;2071029;28;19905;-70
2022/11/09 02:37:59;;;;;;;3.33;1.30;;;16.20;99.90;;;;;;2071032;28;20370;-70
2022/11/09 02:39:00;;;;;;;3.05;1.20;;;16.20;99.90;;;;;;2053177;28;20751;-70
2022/11/09 02:40:06;;;;;;;1.80;0.95;;;16.20;99.90;;;;;;2053007;28;20027;-70
2022/11/09 02:41:07;;;;;;;2.63;1.15;;;16.20;99.90;;;;;;2056215;28;20042;-70
2022/11/09 02:42:12;;;;;;;2.75;1.38;;;16.20;99.90;;;;;;2069987;28;20022;-70
2022/11/09 02:43:15;;;;;;;5.25;1.35;;;16.20;99.90;;;;;;2069958;28;20492;-70
2022/11/09 02:44:17;;;;;;;2.55;1.25;;;16.20;99.90;;;;;;2070740;28;20025;-70
2022/11/09 02:45:17;;;;;;;2.15;1.00;;;16.20;99.90;;;;;;2071495;28;20120;-70
2022/11/09 02:46:33;;;;;;;3.30;1.20;;;16.20;99.90;;;;;;2071204;28;20030;-69
2022/11/09 02:47:33;;;;;;;1.95;1.13;;;16.20;99.90;;;;;;2068769;28;20033;-69
2022/11/09 02:48:34;;;;;;;3.75;1.10;;;16.10;99.90;;;;;;2071895;28;20033;-70
2022/11/09 02:49:34;;;;;;;3.25;1.00;;;16.10;99.90;;;;;;2070062;28;20034;-70
2022/11/09 02:50:35;;;;;;;3.92;1.92;;;16.10;99.90;;;;;;2068489;28;20494;-70
2022/11/09 02:51:36;;;;;;;2.65;1.17;;;16.10;99.90;;;;;;2069389;28;20033;-70
2022/11/09 02:52:37;;;;;;;5.22;1.15;;;16.10;99.90;;;;;;2068284;28;20033;-70
2022/11/09 02:53:37;;;;;;;1.77;1.13;;;16.10;99.90;;;;;;2071273;28;20030;-70
2022/11/09 02:54:38;;;;;;;3.10;1.23;;;16.10;99.90;;;;;;2070768;28;20028;-70
2022/11/09 02:55:38;;;;;;;4.05;1.60;;;16.10;99.90;;;;;;2069881;28;20045;-70
2022/11/09 02:56:39;;;;;;;2.53;1.15;;;16.10;99.90;;;;;;2069145;28;20581;-70
2022/11/09 02:57:39;;;;;;;2.80;1.17;;;16.10;99.90;;;;;;2068660;28;20797;-70
2022/11/09 02:58:40;;;;;;;1.95;1.08;;;16.10;99.90;;;;;;2071439;28;20474;-70
2022/11/09 02:59:40;;;;;;;6.43;1.55;;;16.10;99.90;;;;;;2070296;28;20033;-70
2022/11/09 03:00:41;;;;;;;2.92;1.23;;;16.10;99.90;;;;;;2068129;28;20168;-70
2022/11/09 03:01:41;;;;;;;4.38;1.40;;;16.10;99.90;;;;;;2069744;28;20030;-70
2022/11/09 03:02:42;;;;;;;5.82;1.40;;;16.10;99.90;;;;;;2069407;28;20062;-70
2022/11/09 03:03:42;;;;;;;8.18;1.52;;;16.10;99.90;;;;;;2070420;28;20140;-70
2022/11/09 03:04:43;;;;;;;5.25;1.20;;;16.10;99.90;;;;;;2069699;28;20080;-70
2022/11/09 03:05:43;;;;;;;1.63;0.93;;;16.00;99.90;;;;;;2070159;28;20066;-70
2022/11/09 03:06:44;;;;;;;4.22;1.65;;;16.00;99.90;;;;;;2070647;28;20029;-70
2022/11/09 03:07:44;;;;;;;4.57;1.48;;;16.10;99.90;;;;;;2070810;28;20028;-70
2022/11/09 03:08:45;;;;;;;1.73;1.20;;;16.00;99.90;;;;;;2068946;28;20375;-70
2022/11/09 03:09:46;;;;;;;1.65;1.00;;;16.00;99.90;;;;;;2069014;28;20026;-70
2022/11/09 03:10:46;;;;;;;3.60;1.45;;;16.00;99.90;;;;;;2069347;28;20017;-70
2022/11/09 03:11:48;;;;;;;3.25;1.30;;;16.00;99.90;;;;;;2070646;28;20680;-70
2022/11/09 03:12:48;;;;;;;4.53;1.45;;;16.00;99.90;;;;;;2070385;28;20273;-70
2022/11/09 03:13:49;;;;;;;2.63;1.17;;;16.00;99.90;;;;;;2068552;28;20034;-70
2022/11/09 03:14:49;;;;;;;5.57;1.42;;;16.00;99.90;;;;;;2071497;28;20030;-70
2022/11/09 03:15:50;;;;;;;2.08;1.38;;;16.00;99.90;;;;;;2070696;28;20022;-70
2022/11/09 03:16:50;;;;;;;3.15;1.05;;;16.00;99.90;;;;;;2070618;28;20041;-70
2022/11/09 03:17:51;;;;;;;3.72;1.85;;;16.00;99.90;;;;;;2070838;28;20129;-70
2022/11/09 03:18:51;;;;;;;2.80;1.60;;;16.00;99.90;;;;;;2069763;28;20385;-70
2022/11/09 03:19:52;;;;;;;2.90;1.40;;;16.00;99.90;;;;;;2070649;28;20485;-70
2022/11/09 03:20:53;;;;;;;3.40;1.30;;;16.00;99.90;;;;;;2070793;28;20029;-69
2022/11/09 03:21:53;;;;;;;4.82;2.00;;;16.00;99.90;;;;;;2070284;28;20034;-69
2022/11/09 03:22:58;;;;;;;3.88;1.27;;;15.90;99.90;;;;;;2070540;28;20037;-69
2022/11/09 03:23:58;;;;;;;4.18;1.52;;;15.90;99.90;;;;;;2068335;28;20112;-69
2022/11/09 03:24:59;;;;;;;2.33;1.10;;;15.90;99.90;;;;;;2070250;28;20034;-70
2022/11/09 03:25:59;;;;;;;2.45;1.30;;;15.90;99.90;;;;;;2070111;28;20660;-70
2022/11/09 03:27:00;;;;;;;3.72;1.35;;;15.90;99.90;;;;;;2069999;28;20382;-70
2022/11/09 03:28:03;;;;;;;3.58;1.40;;;15.90;99.90;;;;;;2070943;28;20061;-70
2022/11/09 03:29:03;;;;;;;4.18;1.30;;;15.90;99.90;;;;;;2068979;28;20057;-70
2022/11/09 03:30:04;;;;;;;4.28;1.50;;;15.90;99.90;;;;;;2068837;28;20039;-69
2022/11/09 03:31:05;;;;;;;3.25;1.58;;;15.90;99.90;;;;;;2070883;28;20038;-70
2022/11/09 03:32:06;;;;;;;4.25;1.70;;;15.90;99.90;;;;;;2070518;28;20053;-70
2022/11/09 03:33:09;;;;;;;4.70;1.80;;;15.90;99.90;;;;;;2070203;28;20026;-70
2022/11/09 03:34:09;;;;;;;4.80;1.70;;;15.90;99.90;;;;;;2070632;28;20080;-70
2022/11/09 03:35:10;;;;;;;3.88;1.40;;;15.90;99.90;;;;;;2069325;28;20151;-69
2022/11/09 03:36:10;;;;;;;4.45;1.70;;;15.90;99.90;;;;;;2070103;28;20023;-70
2022/11/09 03:37:11;;;;;;;4.03;1.52;;;15.90;99.90;;;;;;2070562;28;20026;-70
2022/11/09 03:38:12;;;;;;;4.53;1.30;;;15.90;99.90;;;;;;2069781;28;20038;-70
2022/11/09 03:39:12;;;;;;;2.33;1.10;;;15.90;99.90;;;;;;2070203;28;20027;-70
2022/11/09 03:40:13;;;;;;;2.95;1.38;;;15.90;99.90;;;;;;2067307;28;20155;-70
2022/11/09 03:41:13;;;;;;;5.88;1.95;;;15.90;99.90;;;;;;2068775;28;20085;-69
2022/11/09 03:42:14;;;;;;;3.67;1.63;;;15.90;99.90;;;;;;2068834;28;20034;-69
2022/11/09 03:43:14;;;;;;;5.35;1.55;;;15.90;99.90;;;;;;2069174;28;20485;-69
2022/11/09 03:44:15;;;;;;;5.97;1.73;;;15.90;99.90;;;;;;2071011;28;20062;-70
2022/11/09 03:45:16;;;;;;;3.33;1.75;;;15.90;99.90;;;;;;2068787;28;20125;-70
2022/11/09 03:46:16;;;;;;;3.05;1.40;;;16.00;99.90;;;;;;2069728;28;20027;-69
2022/11/09 03:47:17;;;;;;;5.22;1.65;;;16.00;99.90;;;;;;2068945;28;20125;-70
2022/11/09 03:48:17;;;;;;;4.38;1.52;;;16.00;99.90;;;;;;2070377;28;20092;-70
2022/11/09 03:49:18;;;;;;;6.80;1.80;;;16.00;99.90;;;;;;2068483;28;20375;-69
2022/11/09 03:50:18;;;;;;;4.63;1.60;;;16.00;99.90;;;;;;2069954;28;20038;-69
2022/11/09 03:51:19;;;;;;;5.05;2.00;;;16.00;99.90;;;;;;2070858;28;20029;-69
2022/11/09 03:52:20;;;;;;;2.95;1.40;;;16.00;99.90;;;;;;2070315;28;20108;-70
2022/11/09 03:53:20;;;;;;;3.08;1.52;;;16.00;99.90;;;;;;2068922;28;20033;-70
2022/11/09 03:54:21;;;;;;;4.32;1.60;;;16.00;99.90;;;;;;2070236;28;20116;-70
2022/11/09 03:55:21;;;;;;;7.57;1.50;;;16.00;99.90;;;;;;2070007;28;20037;-70
2022/11/09 03:56:22;;;;;;;6.85;1.80;;;16.00;99.90;;;;;;2070481;28;20022;-70
2022/11/09 03:57:22;;;;;;;4.63;1.60;;;16.00;99.90;;;;;;2069639;28;20543;-70
2022/11/09 03:58:23;;;;;;;4.00;1.50;;;16.00;99.90;;;;;;2071100;28;20375;-70
2022/11/09 03:59:23;;;;;;;3.95;1.55;;;16.00;99.90;;;;;;2069271;28;20410;-70
2022/11/09 04:00:24;;;;;;;4.28;1.17;;;16.00;99.90;;;;;;2069474;28;20027;-69
2022/11/09 04:01:24;;;;;;;4.82;1.65;;;16.00;99.90;;;;;;2070319;28;20018;-69
2022/11/09 04:02:25;;;;;;;3.58;1.58;;;16.00;99.90;;;;;;2071048;28;20022;-70
2022/11/09 04:03:25;;;;;;;3.30;1.40;;;16.00;99.90;;;;;;2068849;28;20028;-70
2022/11/09 04:04:26;;;;;;;4.93;1.42;;;16.00;99.90;;;;;;2070716;28;20041;-69
2022/11/09 04:05:26;;;;;;;4.05;1.67;;;16.00;99.90;;;;;;2068841;28;20065;-70
2022/11/09 04:06:27;;;;;;;6.22;2.38;;;16.00;99.90;;;;;;2070306;28;20034;-70
2022/11/09 04:07:27;;;;;;;5.22;1.55;;;16.00;99.90;;;;;;2069929;28;20065;-70
2022/11/09 04:08:28;;;;;;;5.20;1.55;;;16.00;99.90;;;;;;2071669;28;20036;-70
2022/11/09 04:09:28;;;;;;;6.82;1.58;;;16.00;99.90;;;;;;2069810;28;20040;-70
2022/11/09 04:10:29;;;;;;;3.58;1.20;;;16.10;99.90;;;;;;2069618;28;20038;-69
2022/11/09 04:11:29;;;;;;;5.78;1.83;;;16.10;99.90;;;;;;2068440;28;20116;-69
2022/11/09 04:12:30;;;;;;;4.45;1.35;;;16.10;99.90;;;;;;2070675;28;20477;-69
2022/11/09 04:13:31;;;;;;;4.65;1.55;;;16.10;99.90;;;;;;2067840;28;20124;-69
2022/11/09 04:14:31;;;;;;;3.15;1.30;;;16.10;99.90;;;;;;2068095;28;20037;-69
2022/11/09 04:15:32;;;;;;;4.28;1.55;;;16.10;99.90;;;;;;2068272;28;20053;-69
2022/11/09 04:16:32;;;;;;;3.78;1.42;;;16.10;99.90;;;;;;2069023;28;20671;-69
2022/11/09 04:17:33;;;;;;;3.35;1.27;;;16.10;99.90;;;;;;2068408;28;20041;-69
2022/11/09 04:18:33;;;;;;;8.60;1.60;;;16.10;99.90;;;;;;2070375;28;20036;-69
2022/11/09 04:19:34;;;;;;;3.00;1.35;;;16.10;99.90;;;;;;2069158;28;20101;-70
2022/11/09 04:20:34;;;;;;;4.32;1.45;;;16.10;99.90;;;;;;2069222;28;20026;-70
2022/11/09 04:21:35;;;;;;;4.10;1.40;;;16.10;99.90;;;;;;2070004;28;20022;-70
2022/11/09 04:22:36;;;;;;;5.35;1.42;;;16.10;99.90;;;;;;2070182;28;20030;-70
2022/11/09 04:23:37;;;;;;;5.70;1.50;;;16.10;99.90;;;;;;2068218;28;20036;-70
2022/11/09 04:24:37;;;;;;;4.35;1.52;;;16.10;99.90;;;;;;2069280;28;20038;-70
2022/11/09 04:25:39;;;;;;;4.85;1.75;;;16.10;99.90;;;;;;2068897;28;20030;-70
2022/11/09 04:26:40;;;;;;;2.83;1.40;;;16.10;99.90;;;;;;2069041;28;20045;-70
2022/11/09 04:27:40;;;;;;;5.38;1.48;;;16.10;99.90;;;;;;2071691;28;20029;-70
2022/11/09 04:28:41;;;;;;;3.05;1.40;;;16.20;99.90;;;;;;2067969;28;20033;-70
2022/11/09 04:29:44;;;;;;;5.35;1.42;;;16.10;99.90;;;;;;2067964;28;20108;-70
2022/11/09 04:30:45;;;;;;;3.40;1.58;;;16.20;99.90;;;;;;2067644;28;20385;-70
2022/11/09 04:31:47;;;;;;;6.53;1.40;;;16.20;99.90;;;;;;2069807;28;20129;-70
2022/11/09 04:32:48;;;;;;;9.95;1.70;;;16.20;99.90;;;;;;2070818;28;20105;-70
2022/11/09 04:33:50;;;;;;;2.30;1.33;;;16.10;99.90;;;;;;2069049;28;20113;-70
2022/11/09 04:34:50;;;;;;;3.38;1.60;;;16.20;99.90;;;;;;2069164;28;20033;-70
2022/11/09 04:35:51;;;;;;;6.15;1.60;;;16.20;99.90;;;;;;2069762;28;20116;-69
2022/11/09 04:36:51;;;;;;;6.00;1.70;;;16.20;99.90;;;;;;2070865;28;20030;-70
2022/11/09 04:37:59;;;;;;;4.35;1.40;;;16.20;99.90;;;;;;2069694;28;20534;-70
2022/11/09 04:38:59;;;;;;;3.60;1.65;;;16.10;99.90;;;;;;2070762;28;20481;-70
2022/11/09 04:40:00;;;;;;;5.10;1.50;;;16.20;99.90;;;;;;2070721;28;20057;-70
2022/11/09 04:41:02;;;;;;;3.90;1.20;;;16.10;99.90;;;;;;2069032;28;20041;-70
2022/11/09 04:42:02;;;;;;;6.50;1.60;;;16.20;99.90;;;;;;2069319;28;20081;-69
2022/11/09 04:43:05;;;;;;;4.82;1.50;;;16.10;99.90;;;;;;2068851;28;20026;-69
2022/11/09 04:44:06;;;;;;;5.00;1.52;;;16.10;99.90;;;;;;2070043;28;20608;-69
2022/11/09 04:45:06;;;;;;;6.00;1.75;;;16.10;99.90;;;;;;2067833;28;20391;-69
2022/11/09 04:46:07;;;;;;;4.47;1.50;;;16.10;99.90;;;;;;2069045;28;20037;-69
2022/11/09 04:47:08;;;;;;;5.97;1.50;;;16.10;99.90;;;;;;2069800;28;20027;-69
2022/11/09 04:48:09;;;;;;;5.15;1.42;;;16.10;99.90;;;;;;2069044;28;20088;-69
2022/11/09 04:49:10;;;;;;;5.25;1.58;;;16.10;99.90;;;;;;2069147;28;20049;-69
2022/11/09 04:50:11;;;;;;;4.78;1.60;;;16.10;99.90;;;;;;2068899;28;20026;-69
2022/11/09 04:51:11;;;;;;;3.92;1.80;;;16.10;99.90;;;;;;2068175;28;20072;-69
2022/11/09 04:52:12;;;;;;;3.88;1.60;;;16.10;99.90;;;;;;2070317;28;21099;-69
2022/11/09 04:53:14;;;;;;;6.32;1.67;;;16.10;99.90;;;;;;2067895;28;20026;-69
2022/11/09 04:54:14;;;;;;;4.63;1.90;;;16.10;99.90;;;;;;2068592;28;20041;-69
2022/11/09 04:55:15;;;;;;;2.63;1.10;;;16.10;99.90;;;;;;2069827;28;20028;-69
2022/11/09 04:56:16;;;;;;;4.63;1.70;;;16.10;99.90;;;;;;2070240;28;20093;-69
2022/11/09 04:57:16;;;;;;;4.00;2.17;;;16.10;99.90;;;;;;2070576;28;20037;-69
2022/11/09 04:58:16;;;;;;;4.40;1.77;;;16.10;99.90;;;;;;2076949;28;20374;-69
2022/11/09 04:59:17;;;;;;;4.30;1.38;;;16.10;99.90;;;;;;2077130;28;20719;-69
2022/11/09 05:00:18;;;;;;;4.40;1.55;;;16.10;99.90;;;;;;2068337;28;20023;-69
2022/11/09 05:01:18;;;;;;;6.07;1.67;;;16.00;99.90;;;;;;2068265;28;20102;-70
2022/11/09 05:02:19;;;;;;;4.82;1.90;;;16.10;99.90;;;;;;2069715;28;20034;-70
2022/11/09 05:03:20;;;;;;;4.75;1.70;;;16.10;99.90;;;;;;2067949;28;20026;-70
2022/11/09 05:04:20;;;;;;;5.07;1.40;;;16.10;99.90;;;;;;2067637;28;20034;-70
2022/11/09 05:05:21;;;;;;;4.28;1.58;;;16.00;99.90;;;;;;2070053;28;20051;-70
2022/11/09 05:06:30;;;;;;;6.20;1.70;;;16.10;99.90;;;;;;2069124;28;20034;-70
2022/11/09 05:07:31;;;;;;;4.32;1.50;;;16.10;99.90;;;;;;2068908;28;20057;-70
2022/11/09 05:08:31;;;;;;;5.18;1.42;;;16.00;99.90;;;;;;2069022;28;20042;-70
2022/11/09 05:09:32;;;;;;;4.90;1.38;;;16.10;99.90;;;;;;2069173;28;20367;-69
2022/11/09 05:10:33;;;;;;;4.00;1.40;;;16.00;99.90;;;;;;2069887;28;20030;-69
2022/11/09 05:11:35;;;;;;;3.08;1.60;;;16.00;99.90;;;;;;2068628;28;20038;-70
2022/11/09 05:12:35;;;;;;;3.80;1.52;;;16.00;99.90;;;;;;2069864;28;20025;-70
2022/11/09 05:13:36;;;;;;;2.92;1.38;;;16.10;99.90;;;;;;2068654;28;20040;-69
2022/11/09 05:14:36;;;;;;;3.40;1.45;;;16.10;99.90;;;;;;2070373;28;20042;-69
2022/11/09 05:15:38;;;;;;;4.43;1.55;;;16.10;99.90;;;;;;2070434;28;20022;-69
2022/11/09 05:16:38;;;;;;;4.35;1.50;;;16.10;99.90;;;;;;2070332;28;20036;-69
2022/11/09 05:17:39;;;;;;;3.72;1.40;;;16.10;99.90;;;;;;2068969;28;20069;-70
2022/11/09 05:18:39;;;;;;;5.72;1.65;;;16.10;99.90;;;;;;2070873;28;20045;-69
2022/11/09 05:19:40;;;;;;;4.50;1.70;;;16.00;99.90;;;;;;2069573;28;20455;-69
2022/11/09 05:20:40;;;;;;;4.15;1.52;;;16.00;99.90;;;;;;2070760;28;20029;-69
2022/11/09 05:21:41;;;;;;;4.10;1.98;;;16.00;99.90;;;;;;2070749;28;20474;-69
2022/11/09 05:24:01;;;;;;;4.53;1.23;;;16.00;99.90;;;;;;2071259;28;20462;-69